createdAt,value
2018-12-31T00:00:32.033Z,11.18
2018-12-31T00:03:20.786Z,18.17
2018-12-31T00:06:09.654Z,11.80
2018-12-31T00:08:58.528Z,14.40
2018-12-31T00:11:47.451Z,14.85
2018-12-31T00:14:36.652Z,10.65
2018-12-31T00:17:25.427Z,12.33
2018-12-31T00:20:14.457Z,13.28
2018-12-31T00:23:03.057Z,12.45
2018-12-31T00:25:52.292Z,10.23
2018-12-31T00:28:41.221Z,14.93
2018-12-31T00:31:30.293Z,14.68
2018-12-31T00:34:19.261Z,12.90
2018-12-31T00:37:07.882Z,13.32
2018-12-31T00:39:56.549Z,12.60
2018-12-31T00:42:45.780Z,15.93
2018-12-31T00:45:34.471Z,15.72
2018-12-31T00:48:23.619Z,13.50
2018-12-31T00:51:12.604Z,15.78
2018-12-31T00:54:01.667Z,13.25
2018-12-31T00:56:50.752Z,13.40
2018-12-31T00:59:39.938Z,13.10
2018-12-31T01:02:28.531Z,13.68
2018-12-31T01:05:17.148Z,13.53
2018-12-31T01:08:05.932Z,14.25
2018-12-31T01:10:54.704Z,14.73
2018-12-31T01:13:43.004Z,16.45
2018-12-31T01:16:31.472Z,22.67
2018-12-31T01:19:19.968Z,21.20
2018-12-31T01:22:09.117Z,15.90
2018-12-31T01:24:58.425Z,17.48
2018-12-31T01:27:47.852Z,18.70
2018-12-31T01:30:36.910Z,16.65
2018-12-31T01:33:25.677Z,16.62
2018-12-31T01:36:14.701Z,19.42
2018-12-31T01:39:04.603Z,17.10
2018-12-31T01:41:53.688Z,19.90
2018-12-31T01:44:43.110Z,19.70
2018-12-31T01:47:31.921Z,15.70
2018-12-31T01:50:20.849Z,16.40
2018-12-31T01:53:09.577Z,17.07
2018-12-31T01:55:58.245Z,20.40
2018-12-31T01:58:46.652Z,20.05
2018-12-31T02:01:35.487Z,16.93
2018-12-31T02:04:24.383Z,18.60
2018-12-31T02:07:13.743Z,17.85
2018-12-31T02:10:02.389Z,15.48
2018-12-31T02:12:51.492Z,18.27
2018-12-31T02:15:40.122Z,15.93
2018-12-31T02:18:28.535Z,21.97
2018-12-31T02:21:17.417Z,19.37
2018-12-31T02:24:05.984Z,16.40
2018-12-31T02:26:54.688Z,15.30
2018-12-31T02:29:43.046Z,16.93
2018-12-31T02:32:31.840Z,14.55
2018-12-31T02:35:20.724Z,16.05
2018-12-31T02:38:10.026Z,16.55
2018-12-31T02:40:59.070Z,17.50
2018-12-31T02:43:48.270Z,21.57
2018-12-31T02:46:37.112Z,16.55
2018-12-31T02:49:26.354Z,15.90
2018-12-31T02:52:15.015Z,18.55
2018-12-31T02:55:04.160Z,19.15
2018-12-31T02:57:53.088Z,17.92
2018-12-31T03:00:41.940Z,16.73
2018-12-31T03:03:30.937Z,17.05
2018-12-31T03:06:20.219Z,17.12
2018-12-31T03:09:09.446Z,16.75
2018-12-31T03:11:58.532Z,19.70
2018-12-31T03:14:47.159Z,18.55
2018-12-31T03:17:35.781Z,18.10
2018-12-31T03:20:25.021Z,18.07
2018-12-31T03:23:13.848Z,18.67
2018-12-31T03:26:02.965Z,20.10
2018-12-31T03:28:51.996Z,19.07
2018-12-31T03:31:40.399Z,21.37
2018-12-31T03:34:28.705Z,18.95
2018-12-31T03:37:17.035Z,18.30
2018-12-31T03:40:06.144Z,19.77
2018-12-31T03:42:55.305Z,20.32
2018-12-31T03:45:44.125Z,25.05
2018-12-31T03:48:33.403Z,21.52
2018-12-31T03:51:22.455Z,19.98
2018-12-31T03:54:11.588Z,19.73
2018-12-31T03:57:00.344Z,20.25
2018-12-31T03:59:49.364Z,21.25
2018-12-31T04:02:38.566Z,20.17
2018-12-31T04:05:27.516Z,20.48
2018-12-31T04:08:16.709Z,22.25
2018-12-31T04:11:05.458Z,18.90
2018-12-31T04:13:54.205Z,20.08
2018-12-31T04:16:43.352Z,19.10
2018-12-31T04:19:32.407Z,16.93
2018-12-31T04:22:21.160Z,18.02
2018-12-31T04:25:10.339Z,16.93
2018-12-31T04:27:59.459Z,16.70
2018-12-31T04:30:47.686Z,17.05
2018-12-31T04:33:36.725Z,16.20
2018-12-31T04:36:25.798Z,17.00
2018-12-31T04:39:14.715Z,16.62
2018-12-31T04:42:03.745Z,17.20
2018-12-31T04:44:52.870Z,16.60
2018-12-31T04:47:41.610Z,15.60
2018-12-31T04:50:29.977Z,17.27
2018-12-31T04:53:18.877Z,15.78
2018-12-31T04:56:08.003Z,15.63
2018-12-31T04:58:57.107Z,16.40
2018-12-31T05:01:46.106Z,16.52
2018-12-31T05:04:34.859Z,16.30
2018-12-31T05:07:23.905Z,16.30
2018-12-31T05:10:13.098Z,17.27
2018-12-31T05:13:02.035Z,16.70
2018-12-31T05:15:50.956Z,17.70
2018-12-31T05:18:39.998Z,16.95
2018-12-31T05:21:28.920Z,17.35
2018-12-31T05:24:17.776Z,18.65
2018-12-31T05:27:07.103Z,20.15
2018-12-31T05:29:55.348Z,19.12
2018-12-31T05:32:44.725Z,20.12
2018-12-31T05:35:33.256Z,16.82
2018-12-31T05:38:22.538Z,16.95
2018-12-31T05:41:11.634Z,18.42
2018-12-31T05:44:00.708Z,16.75
2018-12-31T05:46:49.286Z,17.95
2018-12-31T05:49:38.222Z,18.27
2018-12-31T05:52:27.056Z,18.25
2018-12-31T05:55:16.223Z,18.40
2018-12-31T05:58:05.371Z,17.40
2018-12-31T06:00:54.593Z,19.60
2018-12-31T06:03:43.135Z,17.15
2018-12-31T06:06:32.060Z,18.40
2018-12-31T06:09:21.313Z,18.57
2018-12-31T06:12:10.159Z,20.00
2018-12-31T06:14:58.575Z,17.80
2018-12-31T06:17:47.150Z,19.75
2018-12-31T06:20:35.452Z,18.32
2018-12-31T06:23:24.204Z,20.23
2018-12-31T06:26:13.153Z,20.90
2018-12-31T06:29:02.346Z,19.23
2018-12-31T06:31:51.189Z,20.02
2018-12-31T06:34:39.820Z,18.48
2018-12-31T06:37:28.681Z,20.02
2018-12-31T06:40:17.771Z,20.27
2018-12-31T06:43:06.647Z,18.55
2018-12-31T06:45:55.362Z,19.50
2018-12-31T06:48:44.351Z,17.27
2018-12-31T06:51:32.959Z,16.97
2018-12-31T06:54:22.231Z,15.23
2018-12-31T06:57:11.381Z,16.10
2018-12-31T07:00:00.163Z,15.45
2018-12-31T07:02:49.156Z,16.07
2018-12-31T07:05:38.174Z,14.90
2018-12-31T07:08:27.023Z,16.32
2018-12-31T07:11:16.099Z,15.18
2018-12-31T07:14:04.923Z,14.55
2018-12-31T07:16:54.086Z,15.58
2018-12-31T07:19:43.068Z,15.32
2018-12-31T07:22:32.105Z,15.78
2018-12-31T07:25:21.046Z,17.00
2018-12-31T07:28:10.137Z,15.95
2018-12-31T07:30:58.892Z,14.90
2018-12-31T07:33:47.900Z,15.45
2018-12-31T07:36:36.708Z,16.52
2018-12-31T07:39:25.700Z,16.17
2018-12-31T07:42:14.134Z,14.80
2018-12-31T07:45:03.165Z,17.77
2018-12-31T07:47:51.982Z,17.30
2018-12-31T07:50:41.189Z,16.45
2018-12-31T07:53:30.101Z,16.97
2018-12-31T07:56:19.151Z,15.98
2018-12-31T07:59:08.474Z,16.30
2018-12-31T08:01:57.518Z,15.68
2018-12-31T08:04:46.583Z,13.60
2018-12-31T08:07:35.530Z,15.43
2018-12-31T08:10:24.510Z,14.90
2018-12-31T08:13:13.317Z,15.63
2018-12-31T08:16:02.630Z,13.88
2018-12-31T08:18:51.615Z,16.20
2018-12-31T08:21:40.639Z,14.70
2018-12-31T08:24:29.427Z,14.23
2018-12-31T08:27:18.498Z,14.00
2018-12-31T08:30:08.230Z,15.60
2018-12-31T08:32:57.150Z,14.25
2018-12-31T08:35:46.178Z,13.00
2018-12-31T08:38:35.515Z,15.28
2018-12-31T08:41:24.089Z,14.20
2018-12-31T08:44:13.021Z,15.28
2018-12-31T08:47:01.395Z,14.18
2018-12-31T08:49:50.426Z,17.12
2018-12-31T08:52:39.282Z,16.10
2018-12-31T08:55:28.413Z,14.98
2018-12-31T08:58:17.485Z,16.35
2018-12-31T09:01:06.491Z,16.15
2018-12-31T09:03:55.606Z,15.83
2018-12-31T09:06:44.514Z,17.55
2018-12-31T09:09:33.351Z,15.20
2018-12-31T09:12:22.055Z,16.77
2018-12-31T09:15:10.728Z,17.02
2018-12-31T09:17:59.535Z,17.10
2018-12-31T09:20:48.054Z,16.15
2018-12-31T09:23:37.048Z,15.28
2018-12-31T09:26:26.195Z,17.10
2018-12-31T09:29:14.572Z,15.65
2018-12-31T09:32:02.891Z,15.60
2018-12-31T09:34:51.863Z,15.13
2018-12-31T09:37:40.970Z,14.25
2018-12-31T09:40:30.181Z,14.87
2018-12-31T09:43:19.134Z,14.33
2018-12-31T09:46:08.099Z,14.63
2018-12-31T09:48:56.989Z,14.25
2018-12-31T09:51:46.172Z,13.68
2018-12-31T09:54:34.712Z,14.23
2018-12-31T09:57:23.704Z,15.32
2018-12-31T10:00:12.553Z,13.68
2018-12-31T10:03:01.528Z,14.83
2018-12-31T10:05:50.570Z,14.47
2018-12-31T10:08:39.496Z,12.30
2018-12-31T10:11:28.715Z,13.32
2018-12-31T10:14:18.004Z,14.00
2018-12-31T10:17:06.853Z,12.15
2018-12-31T10:19:55.797Z,13.30
2018-12-31T10:22:44.996Z,13.45
2018-12-31T10:25:33.907Z,12.65
2018-12-31T10:28:22.886Z,14.28
2018-12-31T10:31:11.956Z,12.10
2018-12-31T10:34:00.893Z,10.63
2018-12-31T10:36:50.058Z,12.73
2018-12-31T10:39:38.692Z,23.45
2018-12-31T10:42:27.864Z,15.60
2018-12-31T10:45:16.538Z,11.83
2018-12-31T10:48:05.346Z,11.35
2018-12-31T10:50:54.350Z,10.32
2018-12-31T10:53:43.485Z,10.53
2018-12-31T10:56:32.293Z,10.63
2018-12-31T10:59:21.090Z,10.93
2018-12-31T11:02:10.083Z,10.58
2018-12-31T11:05:00.913Z,10.60
2018-12-31T11:07:49.749Z,11.78
2018-12-31T11:10:38.838Z,11.05
2018-12-31T11:13:27.870Z,11.30
2018-12-31T11:16:16.417Z,11.12
2018-12-31T11:19:05.504Z,10.10
2018-12-31T11:21:55.751Z,10.15
2018-12-31T11:24:44.555Z,10.10
2018-12-31T11:27:34.131Z,9.90
2018-12-31T11:30:23.051Z,9.13
2018-12-31T11:33:12.032Z,9.03
2018-12-31T11:36:00.681Z,8.98
2018-12-31T11:38:49.039Z,7.45
2018-12-31T11:41:38.098Z,7.42
2018-12-31T11:44:27.168Z,9.30
2018-12-31T11:47:16.042Z,8.55
2018-12-31T11:50:04.749Z,8.20
2018-12-31T11:52:53.687Z,8.73
2018-12-31T11:55:42.420Z,8.40
2018-12-31T11:58:31.606Z,8.08
2018-12-31T12:01:20.591Z,10.38
2018-12-31T12:04:09.935Z,11.12
2018-12-31T12:06:59.048Z,10.75
2018-12-31T12:09:47.655Z,10.45
2018-12-31T12:12:36.493Z,11.18
2018-12-31T12:15:25.499Z,11.40
2018-12-31T12:18:14.304Z,13.32
2018-12-31T12:21:02.661Z,12.90
2018-12-31T12:23:51.681Z,14.05
2018-12-31T12:26:40.303Z,12.58
2018-12-31T12:29:29.274Z,12.90
2018-12-31T12:32:17.982Z,13.38
2018-12-31T12:35:07.040Z,11.43
2018-12-31T12:37:55.971Z,12.03
2018-12-31T12:40:44.841Z,13.10
2018-12-31T12:43:33.746Z,12.80
2018-12-31T12:46:22.677Z,7.78
2018-12-31T12:49:11.483Z,10.00
2018-12-31T12:52:00.588Z,8.55
2018-12-31T12:54:49.722Z,8.18
2018-12-31T12:57:38.734Z,8.13
2018-12-31T13:00:27.292Z,8.00
2018-12-31T13:03:16.317Z,9.05
2018-12-31T13:06:05.481Z,10.45
2018-12-31T13:08:54.319Z,12.30
2018-12-31T13:11:43.579Z,12.58
2018-12-31T13:14:32.377Z,12.47
2018-12-31T13:17:21.507Z,11.83
2018-12-31T13:20:10.076Z,11.78
2018-12-31T13:22:59.357Z,11.55
2018-12-31T13:25:48.208Z,12.03
2018-12-31T13:28:37.341Z,14.13
2018-12-31T13:31:26.434Z,13.58
2018-12-31T13:34:15.316Z,13.20
2018-12-31T13:37:03.638Z,14.00
2018-12-31T13:39:52.689Z,13.75
2018-12-31T13:42:42.007Z,13.95
2018-12-31T13:45:30.511Z,12.60
2018-12-31T13:48:19.166Z,13.00
2018-12-31T13:51:07.668Z,13.83
2018-12-31T13:53:56.598Z,14.70
2018-12-31T13:56:45.170Z,14.05
2018-12-31T13:59:34.304Z,15.48
2018-12-31T14:02:23.375Z,14.38
2018-12-31T14:05:13.065Z,13.40
2018-12-31T14:08:01.888Z,13.10
2018-12-31T14:10:50.802Z,13.43
2018-12-31T14:13:39.792Z,13.05
2018-12-31T14:16:28.552Z,13.65
2018-12-31T14:19:17.696Z,15.70
2018-12-31T14:22:06.444Z,14.70
2018-12-31T14:24:54.981Z,15.10
2018-12-31T14:27:43.914Z,15.88
2018-12-31T14:30:32.984Z,15.88
2018-12-31T14:33:21.747Z,16.75
2018-12-31T14:36:11.048Z,17.10
2018-12-31T14:39:00.000Z,15.88
2018-12-31T14:41:48.844Z,15.90
2018-12-31T14:44:38.136Z,16.95
2018-12-31T14:47:27.017Z,13.80
2018-12-31T14:50:15.557Z,14.35
2018-12-31T14:53:04.151Z,15.15
2018-12-31T14:55:53.015Z,15.08
2018-12-31T14:58:42.095Z,16.55
2018-12-31T15:01:31.477Z,16.10
2018-12-31T15:04:22.529Z,18.05
2018-12-31T15:07:11.655Z,17.65
2018-12-31T15:10:00.542Z,17.12
2018-12-31T15:12:49.659Z,16.30
2018-12-31T15:15:38.604Z,17.10
2018-12-31T15:18:27.814Z,16.85
2018-12-31T15:21:16.468Z,16.27
2018-12-31T15:24:05.323Z,16.05
2018-12-31T15:26:54.485Z,15.83
2018-12-31T15:29:43.120Z,15.32
2018-12-31T15:32:32.127Z,16.48
2018-12-31T15:35:20.939Z,16.12
2018-12-31T15:38:09.906Z,18.85
2018-12-31T15:40:58.934Z,19.17
2018-12-31T15:43:47.687Z,18.00
2018-12-31T15:46:36.646Z,16.85
2018-12-31T15:49:25.564Z,16.97
2018-12-31T15:52:14.499Z,15.55
2018-12-31T15:55:02.808Z,16.25
2018-12-31T15:57:51.974Z,16.20
2018-12-31T16:00:41.234Z,16.82
2018-12-31T16:03:29.972Z,16.57
2018-12-31T16:06:19.403Z,17.00
2018-12-31T16:09:08.603Z,17.35
2018-12-31T16:11:57.803Z,19.77
2018-12-31T16:14:47.087Z,17.57
2018-12-31T16:17:36.348Z,15.98
2018-12-31T16:20:25.394Z,18.25
2018-12-31T16:23:15.076Z,16.42
2018-12-31T16:26:04.037Z,18.17
2018-12-31T16:28:53.408Z,17.40
2018-12-31T16:31:42.769Z,16.42
2018-12-31T16:34:31.480Z,19.75
2018-12-31T16:37:20.525Z,15.53
2018-12-31T16:40:10.191Z,15.25
2018-12-31T16:42:59.142Z,21.80
2018-12-31T16:45:48.671Z,16.48
2018-12-31T16:48:37.664Z,16.75
2018-12-31T16:51:27.477Z,16.80
2018-12-31T16:54:15.807Z,13.20
2018-12-31T16:57:05.263Z,13.68
2018-12-31T16:59:54.754Z,15.23
2018-12-31T17:02:43.457Z,16.32
2018-12-31T17:05:32.168Z,15.90
2018-12-31T17:08:21.566Z,14.47
2018-12-31T17:11:10.482Z,14.28
2018-12-31T17:13:59.593Z,18.92
2018-12-31T17:16:48.316Z,11.88
2018-12-31T17:19:36.795Z,20.65
2018-12-31T17:22:25.983Z,15.30
2018-12-31T17:25:15.024Z,19.20
2018-12-31T17:28:03.380Z,19.27
2018-12-31T17:30:51.807Z,19.20
2018-12-31T17:33:40.769Z,18.40
2018-12-31T17:36:29.818Z,25.35
2018-12-31T17:39:18.774Z,24.52
2018-12-31T17:42:09.764Z,24.30
2018-12-31T17:44:58.765Z,25.20
2018-12-31T17:47:47.807Z,25.70
2018-12-31T17:50:36.159Z,23.25
2018-12-31T17:53:24.634Z,24.77
2018-12-31T17:56:13.496Z,27.95
2018-12-31T17:59:02.586Z,27.37
2018-12-31T18:01:51.560Z,24.30
2018-12-31T18:04:40.440Z,29.35
2018-12-31T18:07:29.491Z,25.97
2018-12-31T18:10:18.032Z,20.75
2018-12-31T18:13:06.891Z,22.13
2018-12-31T18:15:55.606Z,20.52
2018-12-31T18:18:44.687Z,17.77
2018-12-31T18:21:34.248Z,17.30
2018-12-31T18:24:23.196Z,14.83
2018-12-31T18:27:12.123Z,16.73
2018-12-31T18:30:01.000Z,14.55
2018-12-31T18:32:49.959Z,11.25
2018-12-31T18:35:39.059Z,11.40
2018-12-31T18:38:28.542Z,14.15
2018-12-31T18:41:17.373Z,17.23
2018-12-31T18:44:06.382Z,14.43
2018-12-31T18:46:54.820Z,13.45
2018-12-31T18:49:43.850Z,16.23
2018-12-31T18:52:33.223Z,26.87
2018-12-31T18:55:22.603Z,17.80
2018-12-31T18:58:11.898Z,15.30
2018-12-31T19:01:00.637Z,16.10
2018-12-31T19:03:50.232Z,16.30
2018-12-31T19:06:38.990Z,16.37
2018-12-31T19:09:28.771Z,12.68
2018-12-31T19:12:17.729Z,11.50
2018-12-31T19:15:08.432Z,13.83
2018-12-31T19:17:57.551Z,15.00
2018-12-31T19:20:47.172Z,13.25
2018-12-31T19:23:36.424Z,13.43
2018-12-31T19:26:25.701Z,15.30
2018-12-31T19:29:14.898Z,25.27
2018-12-31T19:32:04.014Z,22.37
2018-12-31T19:34:52.370Z,45.75
2018-12-31T19:37:41.524Z,32.05
2018-12-31T19:40:30.650Z,25.95
2018-12-31T19:43:19.664Z,18.85
2018-12-31T19:46:08.583Z,16.30
2018-12-31T19:48:56.864Z,13.88
2018-12-31T19:51:46.007Z,15.63
2018-12-31T19:54:35.145Z,13.35
2018-12-31T19:57:24.260Z,14.30
2018-12-31T20:00:13.612Z,13.78
2018-12-31T20:03:02.673Z,16.32
2018-12-31T20:05:51.557Z,13.38
2018-12-31T20:08:40.603Z,14.53
2018-12-31T20:11:29.527Z,15.18
2018-12-31T20:14:17.925Z,13.88
2018-12-31T20:17:06.883Z,14.80
2018-12-31T20:19:55.915Z,15.35
2018-12-31T20:22:44.582Z,16.40
2018-12-31T20:25:33.137Z,17.77
2018-12-31T20:28:21.859Z,20.95
2018-12-31T20:31:10.494Z,26.15
2018-12-31T20:34:00.510Z,22.55
2018-12-31T20:36:49.529Z,29.07
2018-12-31T20:39:38.697Z,24.25
2018-12-31T20:42:28.305Z,23.57
2018-12-31T20:45:17.572Z,18.80
2018-12-31T20:48:07.060Z,24.18
2018-12-31T20:50:55.468Z,20.85
2018-12-31T20:53:44.584Z,19.73
2018-12-31T20:56:33.753Z,21.20
2018-12-31T20:59:22.643Z,22.10
2018-12-31T21:02:11.706Z,16.07
2018-12-31T21:05:00.525Z,15.23
2018-12-31T21:07:49.518Z,16.60
2018-12-31T21:10:37.750Z,16.12
2018-12-31T21:13:26.763Z,14.45
2018-12-31T21:16:15.981Z,18.73
2018-12-31T21:19:04.838Z,17.20
2018-12-31T21:21:54.009Z,20.35
2018-12-31T21:24:42.608Z,19.70
2018-12-31T21:27:31.518Z,18.50
2018-12-31T21:30:20.223Z,18.23
2018-12-31T21:33:09.191Z,19.15
2018-12-31T21:35:58.327Z,18.52
2018-12-31T21:38:47.545Z,18.85
2018-12-31T21:41:36.566Z,16.57
2018-12-31T21:44:25.590Z,15.90
2018-12-31T21:47:14.319Z,16.93
2018-12-31T21:50:03.749Z,23.45
2018-12-31T21:52:52.635Z,17.85
2018-12-31T21:55:41.530Z,13.85
2018-12-31T21:58:30.694Z,15.35
2018-12-31T22:01:19.801Z,15.98
2018-12-31T22:04:09.062Z,14.45
2018-12-31T22:06:58.248Z,16.70
2018-12-31T22:09:49.162Z,12.45
2018-12-31T22:12:37.885Z,23.18
2018-12-31T22:15:27.578Z,14.70
2018-12-31T22:18:16.637Z,10.95
2018-12-31T22:21:05.675Z,12.50
2018-12-31T22:23:54.378Z,12.93
2018-12-31T22:26:43.261Z,15.23
2018-12-31T22:29:32.178Z,15.70
2018-12-31T22:32:20.738Z,18.30
2018-12-31T22:35:10.046Z,16.10
2018-12-31T22:37:59.109Z,14.43
2018-12-31T22:40:48.393Z,15.93
2018-12-31T22:43:37.416Z,17.20
2018-12-31T22:46:26.617Z,17.75
2018-12-31T22:49:15.709Z,20.57
2018-12-31T22:52:04.535Z,19.75
2018-12-31T22:54:53.253Z,20.48
2018-12-31T22:57:42.120Z,19.70
2018-12-31T23:00:32.013Z,27.58
2018-12-31T23:03:20.997Z,100.75
2018-12-31T23:06:09.913Z,184.32
2018-12-31T23:08:58.931Z,604.72
2018-12-31T23:11:47.768Z,223.32
2018-12-31T23:14:36.433Z,203.20
2018-12-31T23:17:24.747Z,187.40
2018-12-31T23:20:15.500Z,225.57
2018-12-31T23:23:04.706Z,248.53
2018-12-31T23:25:53.863Z,184.63
2018-12-31T23:28:42.894Z,154.12
2018-12-31T23:31:31.617Z,147.35
2018-12-31T23:34:20.640Z,118.28
2018-12-31T23:37:09.705Z,99.22
2018-12-31T23:39:58.866Z,67.53
2018-12-31T23:42:47.727Z,68.60
2018-12-31T23:45:36.861Z,61.85
2018-12-31T23:48:25.261Z,43.75
2018-12-31T23:51:14.561Z,39.65
2018-12-31T23:54:03.252Z,25.23
2018-12-31T23:56:51.879Z,21.65
2018-12-31T23:59:41.029Z,24.52
